Time;durP1;ratioP1;P1;durP2;ratioP2;P2;SDS_P1;SDS_P2;PMS_P1;PMS_P2;Temp;Humidity;BMP_temperature;BMP_pressure;BME280_temperature;BME280_humidity;BME280_pressure;Samples;Min_cycle;Max_cycle;Signal;HPM_P1;HPM_P2
2023/05/01 00:00:24;;;;;;;0.10;0.10;;;7.60;99.90;;;;;;6305156;22;20433;-87
2023/05/01 00:02:51;;;;;;;0.10;0.10;;;7.40;99.90;;;;;;6304942;22;20007;-87
2023/05/01 00:05:16;;;;;;;0.10;0.10;;;7.50;99.90;;;;;;6304620;22;20060;-87
2023/05/01 00:07:42;;;;;;;0.10;0.10;;;7.50;99.90;;;;;;6305719;22;19999;-88
2023/05/01 00:10:07;;;;;;;0.10;0.10;;;8.30;99.90;;;;;;6304654;22;20007;-87
2023/05/01 00:12:33;;;;;;;0.10;0.10;;;8.20;99.90;;;;;;6306938;22;20003;-87
2023/05/01 00:14:58;;;;;;;0.10;0.10;;;7.40;99.90;;;;;;6304082;22;20463;-89
2023/05/01 00:17:24;;;;;;;0.10;0.10;;;7.40;99.90;;;;;;6306816;22;20000;-87
2023/05/01 00:19:51;;;;;;;0.00;0.00;;;7.40;99.90;;;;;;6304267;22;20007;-88
2023/05/01 00:22:17;;;;;;;0.10;0.10;;;8.30;99.90;;;;;;6304685;22;20010;-88
2023/05/01 00:24:43;;;;;;;0.10;0.10;;;7.30;99.90;;;;;;6304040;22;19999;-87
2023/05/01 00:27:09;;;;;;;0.10;0.10;;;;;;;;;;6304671;22;20003;-88
2023/05/01 00:29:34;;;;;;;0.10;0.10;;;7.10;99.90;;;;;;6303697;22;20017;-88
2023/05/01 00:32:00;;;;;;;0.10;0.10;;;;;;;;;;6304275;22;20434;-88
2023/05/01 00:34:26;;;;;;;0.10;0.10;;;;;;;;;;6306667;22;20011;-88
2023/05/01 00:36:52;;;;;;;0.10;0.10;;;;;;;;;;6304540;22;20010;-88
2023/05/01 00:39:17;;;;;;;0.10;0.10;;;7.20;99.90;;;;;;6302958;22;20010;-87
2023/05/01 00:41:43;;;;;;;0.10;0.10;;;7.10;99.90;;;;;;6303983;22;20014;-87
2023/05/01 00:44:09;;;;;;;0.10;0.10;;;7.10;99.90;;;;;;6304165;22;20004;-88
2023/05/01 00:46:35;;;;;;;0.10;0.10;;;6.90;99.90;;;;;;6304369;22;20496;-89
2023/05/01 00:49:00;;;;;;;0.10;0.10;;;7.00;99.90;;;;;;6306696;22;20023;-88
2023/05/01 00:51:28;;;;;;;0.10;0.10;;;6.90;99.90;;;;;;6304060;22;20121;-88
2023/05/01 00:53:55;;;;;;;0.10;0.10;;;7.10;99.90;;;;;;6304938;22;20010;-88
2023/05/01 00:56:20;;;;;;;0.10;0.10;;;6.70;99.90;;;;;;6303847;22;20455;-88
2023/05/01 00:58:52;;;;;;;0.10;0.10;;;7.10;99.90;;;;;;6304727;22;20003;-88
2023/05/01 01:01:20;;;;;;;0.10;0.10;;;7.00;99.90;;;;;;6303968;22;20034;-88
2023/05/01 01:03:46;;;;;;;0.10;0.10;;;6.70;99.90;;;;;;6305352;22;20033;-88
2023/05/01 01:06:35;;;;;;;0.10;0.10;;;6.70;99.90;;;;;;6306284;22;20071;-88
2023/05/01 01:09:38;;;;;;;0.10;0.10;;;6.70;99.90;;;;;;6304232;22;20003;-89
2023/05/01 01:12:22;;;;;;;0.10;0.10;;;6.80;99.90;;;;;;6303429;22;20082;-88
2023/05/01 01:15:10;;;;;;;0.10;0.10;;;6.70;99.90;;;;;;6331172;22;20091;-88
2023/05/01 01:18:11;;;;;;;0.10;0.10;;;6.60;99.90;;;;;;6304003;22;20010;-88
2023/05/01 01:20:58;;;;;;;0.00;0.00;;;6.60;99.90;;;;;;6156233;23;20096;-88
2023/05/01 01:23:52;;;;;;;0.00;0.00;;;6.60;99.90;;;;;;6294473;22;20003;-88
2023/05/01 01:26:36;;;;;;;0.10;0.10;;;6.50;99.90;;;;;;6302538;22;19999;-88
2023/05/01 01:29:10;;;;;;;0.10;0.10;;;6.50;99.90;;;;;;6300243;22;20061;-89
2023/05/01 01:32:33;;;;;;;0.00;0.00;;;6.50;99.90;;;;;;6278420;22;20094;-88
2023/05/01 01:35:16;;;;;;;0.10;0.10;;;6.70;99.90;;;;;;6276898;22;20453;-88
2023/05/01 01:37:59;;;;;;;0.08;0.08;;;6.50;99.90;;;;;;6276872;22;20007;-88
2023/05/01 01:40:35;;;;;;;0.10;0.10;;;6.40;99.90;;;;;;6277868;22;20014;-88
2023/05/01 01:43:12;;;;;;;0.10;0.10;;;6.50;99.90;;;;;;6277647;22;20003;-89
2023/05/01 01:45:44;;;;;;;0.10;0.10;;;6.40;99.90;;;;;;6277589;22;20025;-88
2023/05/01 01:48:14;;;;;;;0.10;0.10;;;6.30;99.90;;;;;;6277439;22;20049;-88
2023/05/01 01:50:42;;;;;;;0.10;0.10;;;6.20;99.90;;;;;;6278747;22;20347;-88
2023/05/01 01:53:10;;;;;;;0.08;0.08;;;6.00;99.90;;;;;;6277656;22;20003;-88
2023/05/01 01:55:38;;;;;;;0.10;0.10;;;6.00;99.90;;;;;;6278747;22;20003;-88
2023/05/01 01:58:07;;;;;;;0.10;0.10;;;5.80;99.90;;;;;;6277914;22;20057;-88
2023/05/01 02:00:34;;;;;;;0.10;0.10;;;5.80;99.90;;;;;;6277495;22;20030;-88
2023/05/01 02:03:02;;;;;;;0.10;0.10;;;5.90;99.90;;;;;;6277397;22;20393;-88
2023/05/01 02:05:29;;;;;;;0.10;0.10;;;5.90;99.90;;;;;;6279139;22;19999;-88
2023/05/01 02:07:56;;;;;;;0.10;0.10;;;6.00;99.90;;;;;;6305360;22;20446;-88
2023/05/01 02:10:23;;;;;;;0.10;0.10;;;6.00;99.90;;;;;;6278069;22;20065;-88
2023/05/01 02:12:51;;;;;;;0.10;0.10;;;6.10;99.90;;;;;;6278233;22;20010;-88
2023/05/01 02:15:18;;;;;;;0.10;0.10;;;6.00;99.90;;;;;;6277299;22;20061;-88
2023/05/01 02:17:44;;;;;;;0.00;0.00;;;6.00;99.90;;;;;;6277244;22;20373;-88
2023/05/01 02:20:11;;;;;;;0.10;0.10;;;6.90;99.90;;;;;;6277844;22;20003;-88
2023/05/01 02:22:41;;;;;;;0.00;0.00;;;5.80;99.90;;;;;;6304632;22;20034;-88
2023/05/01 02:25:10;;;;;;;0.10;0.10;;;5.90;99.90;;;;;;6277231;22;19996;-88
2023/05/01 02:27:42;;;;;;;0.10;0.10;;;5.90;99.90;;;;;;6278075;22;20000;-88
2023/05/01 02:30:08;;;;;;;0.10;0.10;;;5.80;99.90;;;;;;6288327;22;20015;-88
2023/05/01 02:32:34;;;;;;;0.10;0.10;;;6.00;99.90;;;;;;6302996;22;20442;-88
2023/05/01 02:35:00;;;;;;;0.10;0.10;;;5.90;99.90;;;;;;6303808;22;20015;-88
2023/05/01 02:37:27;;;;;;;0.10;0.10;;;5.60;99.90;;;;;;6302820;22;20034;-88
2023/05/01 02:39:53;;;;;;;0.10;0.10;;;5.60;99.90;;;;;;6303494;22;20003;-88
2023/05/01 02:42:20;;;;;;;0.00;0.00;;;5.70;99.90;;;;;;6302977;22;20008;-88
2023/05/01 02:45:06;;;;;;;0.10;0.10;;;6.20;99.90;;;;;;6304941;22;20054;-88
2023/05/01 02:47:38;;;;;;;0.00;0.00;;;6.00;99.90;;;;;;6304779;22;19999;-88
2023/05/01 02:50:06;;;;;;;0.00;0.00;;;6.50;99.90;;;;;;6305280;22;20000;-89
2023/05/01 02:52:33;;;;;;;0.05;0.05;;;6.00;99.90;;;;;;6305938;22;20027;-88
2023/05/01 02:54:59;;;;;;;0.10;0.10;;;5.90;99.90;;;;;;6304607;22;20007;-88
2023/05/01 02:57:25;;;;;;;0.10;0.10;;;5.90;99.90;;;;;;6305177;22;20007;-88
2023/05/01 02:59:50;;;;;;;0.10;0.10;;;6.00;99.90;;;;;;6306822;22;20007;-88
2023/05/01 03:02:16;;;;;;;0.10;0.10;;;6.10;99.90;;;;;;6304574;22;20007;-88
2023/05/01 03:04:42;;;;;;;0.10;0.10;;;6.00;99.90;;;;;;6305151;22;20030;-88
2023/05/01 03:07:08;;;;;;;0.10;0.10;;;5.80;99.90;;;;;;6304812;22;20030;-89
2023/05/01 03:09:33;;;;;;;0.10;0.10;;;5.60;99.90;;;;;;6305020;22;20365;-88
2023/05/01 03:11:59;;;;;;;0.10;0.10;;;5.60;99.90;;;;;;6304439;22;20007;-88
2023/05/01 03:14:27;;;;;;;0.10;0.10;;;5.80;99.90;;;;;;6304845;22;20094;-88
2023/05/01 03:16:53;;;;;;;0.10;0.10;;;5.90;99.90;;;;;;6305390;22;20011;-88
2023/05/01 03:19:18;;;;;;;0.10;0.10;;;6.90;99.90;;;;;;6303976;22;20343;-88
2023/05/01 03:21:44;;;;;;;0.10;0.10;;;5.80;99.90;;;;;;6304686;22;20397;-88
2023/05/01 03:24:09;;;;;;;0.10;0.10;;;5.80;99.90;;;;;;6304831;22;20003;-88
2023/05/01 03:26:35;;;;;;;0.10;0.10;;;5.80;99.90;;;;;;6304324;22;20166;-88
2023/05/01 03:29:00;;;;;;;0.10;0.10;;;5.70;99.90;;;;;;6304322;22;20006;-89
2023/05/01 03:31:26;;;;;;;0.10;0.10;;;5.70;99.90;;;;;;6278547;22;20027;-88
2023/05/01 03:33:51;;;;;;;0.10;0.10;;;5.80;99.90;;;;;;6279451;22;20003;-88
2023/05/01 03:36:17;;;;;;;0.10;0.10;;;5.80;99.90;;;;;;6278882;22;20017;-89
2023/05/01 03:38:42;;;;;;;0.10;0.10;;;5.80;99.90;;;;;;6280165;22;20027;-88
2023/05/01 03:41:08;;;;;;;0.10;0.10;;;5.80;99.90;;;;;;6277559;22;19995;-88
2023/05/01 03:43:34;;;;;;;0.10;0.10;;;6.60;99.90;;;;;;6278349;22;20072;-89
2023/05/01 03:45:59;;;;;;;0.10;0.10;;;6.10;99.90;;;;;;6278892;22;20118;-89
2023/05/01 03:48:25;;;;;;;0.10;0.10;;;;;;;;;;6278666;22;19999;-88
2023/05/01 03:50:51;;;;;;;0.05;0.05;;;5.70;99.90;;;;;;6278306;22;20007;-88
2023/05/01 03:53:17;;;;;;;0.10;0.10;;;5.70;99.90;;;;;;6278894;22;20013;-89
2023/05/01 03:55:43;;;;;;;0.10;0.10;;;5.70;99.90;;;;;;6278398;22;20007;-88
2023/05/01 03:58:09;;;;;;;0.10;0.10;;;5.40;99.90;;;;;;6278896;22;20007;-88
2023/05/01 04:00:36;;;;;;;0.10;0.10;;;5.60;99.90;;;;;;6278989;22;20060;-89
2023/05/01 04:03:02;;;;;;;0.10;0.10;;;5.80;99.90;;;;;;6278843;22;20377;-89
2023/05/01 04:05:27;;;;;;;0.05;0.05;;;5.70;99.90;;;;;;6277889;22;19999;-88
2023/05/01 04:07:53;;;;;;;0.10;0.10;;;5.70;99.90;;;;;;6279603;22;19999;-89
2023/05/01 04:10:18;;;;;;;0.10;0.10;;;5.80;99.90;;;;;;6279395;22;20419;-89
2023/05/01 04:12:44;;;;;;;0.10;0.10;;;5.70;99.90;;;;;;6279748;22;20043;-88
2023/05/01 04:15:10;;;;;;;0.10;0.10;;;5.70;99.90;;;;;;6278296;22;20144;-89
2023/05/01 04:17:36;;;;;;;0.03;0.03;;;5.70;99.90;;;;;;6279602;22;20009;-88
2023/05/01 04:20:04;;;;;;;0.10;0.10;;;5.70;99.90;;;;;;6277846;22;20003;-88
2023/05/01 04:22:29;;;;;;;0.00;0.00;;;5.60;99.90;;;;;;6279252;22;20008;-88
2023/05/01 04:24:55;;;;;;;0.10;0.10;;;5.60;99.90;;;;;;6279289;22;19998;-88
2023/05/01 04:27:21;;;;;;;0.10;0.10;;;5.80;99.90;;;;;;6279275;22;19999;-88
2023/05/01 04:29:46;;;;;;;0.10;0.10;;;5.80;99.90;;;;;;6284357;22;20003;-88
2023/05/01 04:32:12;;;;;;;0.10;0.10;;;6.10;99.90;;;;;;6304396;22;20003;-89
2023/05/01 04:34:38;;;;;;;0.10;0.10;;;5.60;99.90;;;;;;6304171;22;20003;-88
2023/05/01 04:37:06;;;;;;;0.10;0.10;;;5.50;99.90;;;;;;6303107;22;20449;-89
2023/05/01 04:39:31;;;;;;;0.08;0.08;;;5.40;99.90;;;;;;6306045;22;20084;-88
2023/05/01 04:41:56;;;;;;;0.10;0.10;;;5.30;99.90;;;;;;6304343;22;20000;-89
2023/05/01 04:44:22;;;;;;;0.10;0.10;;;5.40;99.90;;;;;;6304524;22;19999;-87
2023/05/01 04:46:48;;;;;;;0.00;0.00;;;;;;;;;;6303273;22;20419;-89
2023/05/01 04:49:14;;;;;;;0.10;0.10;;;;;;;;;;6305096;22;20027;-88
2023/05/01 04:51:40;;;;;;;0.10;0.10;;;;;;;;;;6304743;22;19999;-88
2023/05/01 04:54:06;;;;;;;0.10;0.10;;;5.50;99.90;;;;;;6304045;22;20062;-89
2023/05/01 04:56:31;;;;;;;0.00;0.00;;;5.60;99.90;;;;;;6304852;22;20092;-88
2023/05/01 04:58:57;;;;;;;0.10;0.10;;;5.70;99.90;;;;;;6304317;22;20007;-88
2023/05/01 05:01:22;;;;;;;0.10;0.10;;;6.00;99.90;;;;;;6303767;22;20492;-88
2023/05/01 05:03:48;;;;;;;0.00;0.00;;;6.10;99.90;;;;;;6304159;22;20422;-88
2023/05/01 05:06:13;;;;;;;0.10;0.10;;;6.20;99.90;;;;;;6303899;22;19999;-88
2023/05/01 05:08:39;;;;;;;0.10;0.10;;;6.40;99.90;;;;;;6304771;22;20010;-88
2023/05/01 05:11:04;;;;;;;0.00;0.00;;;6.40;99.90;;;;;;6303974;22;20326;-88
2023/05/01 05:13:30;;;;;;;0.10;0.10;;;6.40;99.90;;;;;;6304645;22;20017;-89
2023/05/01 05:15:55;;;;;;;0.10;0.10;;;6.40;99.90;;;;;;6304209;22;19999;-89
2023/05/01 05:18:21;;;;;;;0.10;0.10;;;6.40;99.90;;;;;;6303175;22;20007;-87
2023/05/01 05:20:46;;;;;;;0.00;0.00;;;6.60;99.90;;;;;;6304313;22;20038;-88
2023/05/01 05:23:12;;;;;;;0.10;0.10;;;6.70;99.90;;;;;;6303442;22;20009;-89
2023/05/01 05:25:38;;;;;;;0.10;0.10;;;;;;;;;;6302507;22;20003;-88
2023/05/01 05:28:03;;;;;;;0.10;0.10;;;7.10;99.90;;;;;;6303250;22;20002;-88
2023/05/01 05:30:29;;;;;;;0.10;0.10;;;7.20;99.90;;;;;;6303441;22;20029;-88
2023/05/01 05:32:54;;;;;;;0.10;0.10;;;7.30;99.90;;;;;;6304444;22;20083;-88
2023/05/01 05:35:20;;;;;;;0.10;0.10;;;7.30;99.90;;;;;;6303625;22;20012;-88
2023/05/01 05:37:46;;;;;;;0.10;0.10;;;7.40;99.90;;;;;;6304711;22;20030;-88
2023/05/01 05:40:12;;;;;;;0.10;0.10;;;7.50;99.90;;;;;;6303131;22;20003;-87
2023/05/01 05:42:37;;;;;;;0.10;0.10;;;7.70;99.90;;;;;;6304353;22;20021;-88
2023/05/01 05:45:04;;;;;;;0.10;0.10;;;7.60;99.90;;;;;;6303735;22;20007;-89
2023/05/01 05:47:29;;;;;;;0.00;0.00;;;7.90;99.90;;;;;;6304087;22;20422;-88
2023/05/01 05:49:54;;;;;;;0.10;0.10;;;8.20;99.90;;;;;;6304485;22;20002;-88
2023/05/01 05:52:20;;;;;;;0.10;0.10;;;8.00;99.90;;;;;;6303293;22;20014;-88
2023/05/01 05:54:46;;;;;;;0.10;0.10;;;;;;;;;;6303560;22;20681;-88
2023/05/01 05:57:12;;;;;;;0.10;0.10;;;8.30;99.90;;;;;;6304207;22;20007;-88
2023/05/01 05:59:37;;;;;;;0.10;0.10;;;8.40;99.90;;;;;;6302876;22;20011;-88
2023/05/01 06:02:03;;;;;;;0.10;0.10;;;8.60;99.90;;;;;;6303536;22;20015;-88
2023/05/01 06:04:29;;;;;;;0.00;0.00;;;8.60;99.90;;;;;;6304114;22;20000;-88
2023/05/01 06:06:54;;;;;;;0.10;0.10;;;8.70;99.90;;;;;;6303627;22;20003;-88
2023/05/01 06:09:20;;;;;;;0.10;0.10;;;;;;;;;;6303664;22;20061;-88
2023/05/01 06:11:47;;;;;;;0.00;0.00;;;;;;;;;;6303688;22;20714;-88
2023/05/01 06:14:13;;;;;;;0.10;0.10;;;9.10;99.90;;;;;;6302606;22;20007;-88
2023/05/01 06:16:38;;;;;;;0.10;0.10;;;9.20;99.90;;;;;;6303569;22;20040;-87
2023/05/01 06:19:04;;;;;;;0.10;0.10;;;9.30;99.90;;;;;;6303419;22;19999;-88
2023/05/01 06:21:31;;;;;;;0.10;0.10;;;;;;;;;;6304221;22;20012;-88
2023/05/01 06:23:57;;;;;;;0.00;0.00;;;9.60;99.90;;;;;;6305226;22;20033;-88
2023/05/01 06:26:22;;;;;;;0.10;0.10;;;9.60;99.90;;;;;;6303657;22;20003;-87
2023/05/01 06:28:48;;;;;;;0.00;0.00;;;9.70;99.90;;;;;;6305395;22;20458;-87
2023/05/01 06:31:13;;;;;;;0.10;0.10;;;9.80;99.90;;;;;;6304823;22;20335;-88
2023/05/01 06:33:39;;;;;;;0.00;0.00;;;9.90;99.90;;;;;;6303632;22;20007;-87
2023/05/01 06:36:05;;;;;;;0.10;0.10;;;10.40;99.90;;;;;;6306387;22;19999;-87
2023/05/01 06:38:31;;;;;;;0.00;0.00;;;9.80;99.90;;;;;;6306359;22;20015;-88
2023/05/01 06:40:57;;;;;;;0.10;0.10;;;10.00;99.90;;;;;;6306308;22;20361;-87
2023/05/01 06:43:26;;;;;;;0.00;0.00;;;9.80;99.90;;;;;;6306328;22;20003;-88
2023/05/01 06:45:52;;;;;;;0.10;0.10;;;10.30;99.90;;;;;;6306846;22;20003;-88
2023/05/01 06:48:17;;;;;;;0.10;0.10;;;9.30;99.90;;;;;;6305476;22;20034;-88
2023/05/01 06:50:43;;;;;;;0.10;0.10;;;9.20;99.90;;;;;;6306189;22;20003;-87
2023/05/01 06:53:08;;;;;;;0.00;0.00;;;9.50;99.90;;;;;;6306045;22;19995;-87
2023/05/01 06:55:34;;;;;;;0.10;0.10;;;9.80;99.90;;;;;;6306289;22;20385;-87
2023/05/01 06:57:59;;;;;;;0.00;0.00;;;10.00;99.90;;;;;;6306296;22;20003;-87
2023/05/01 07:00:25;;;;;;;0.00;0.00;;;10.10;99.90;;;;;;6305805;22;20602;-88
2023/05/01 07:02:50;;;;;;;0.00;0.00;;;10.40;99.90;;;;;;6305728;22;20003;-88
2023/05/01 07:05:17;;;;;;;0.00;0.00;;;10.70;99.90;;;;;;6306008;22;20007;-88
2023/05/01 07:07:42;;;;;;;0.10;0.10;;;11.00;99.90;;;;;;6306639;22;19999;-88
2023/05/01 07:10:08;;;;;;;0.00;0.00;;;11.20;99.90;;;;;;6305939;22;20057;-87
2023/05/01 07:12:34;;;;;;;0.00;0.00;;;11.30;99.90;;;;;;6306461;22;20438;-88
2023/05/01 07:14:59;;;;;;;0.00;0.00;;;11.40;99.90;;;;;;6306756;22;20060;-88
2023/05/01 07:17:25;;;;;;;0.00;0.00;;;11.70;99.90;;;;;;6304980;22;20007;-88
2023/05/01 07:19:51;;;;;;;0.00;0.00;;;11.70;99.90;;;;;;6305553;22;20346;-88
2023/05/01 07:22:17;;;;;;;0.00;0.00;;;11.80;99.90;;;;;;6305466;22;20003;-87
2023/05/01 07:24:43;;;;;;;0.00;0.00;;;12.10;99.30;;;;;;6306233;22;20007;-87
2023/05/01 07:27:09;;;;;;;0.00;0.00;;;;;;;;;;6307527;22;20003;-88
2023/05/01 07:29:36;;;;;;;0.00;0.00;;;12.10;99.90;;;;;;6305798;22;20012;-87
2023/05/01 07:32:04;;;;;;;0.00;0.00;;;12.00;99.90;;;;;;6306080;22;20008;-88
2023/05/01 07:34:30;;;;;;;0.00;0.00;;;11.90;99.90;;;;;;6305857;22;20082;-87
2023/05/01 07:36:58;;;;;;;0.00;0.00;;;12.10;99.90;;;;;;6307724;22;20076;-87
2023/05/01 07:39:25;;;;;;;0.00;0.00;;;12.50;99.90;;;;;;6305380;22;20003;-87
2023/05/01 07:41:50;;;;;;;0.00;0.00;;;12.50;99.90;;;;;;6305836;22;20007;-88
2023/05/01 07:44:16;;;;;;;0.00;0.00;;;12.90;99.10;;;;;;6305653;22;20010;-87
2023/05/01 07:46:41;;;;;;;0.10;0.00;;;13.20;98.90;;;;;;6306081;22;19999;-87
2023/05/01 07:49:07;;;;;;;0.00;0.00;;;13.30;98.50;;;;;;6305021;22;19999;-87
2023/05/01 07:51:33;;;;;;;0.00;0.00;;;13.30;97.90;;;;;;6305286;22;20011;-87
2023/05/01 07:54:03;;;;;;;0.00;0.00;;;14.30;98.00;;;;;;6305245;22;20419;-89
2023/05/01 07:56:29;;;;;;;0.00;0.00;;;13.50;97.10;;;;;;6304371;22;19999;-86
2023/05/01 07:58:55;;;;;;;0.00;0.00;;;13.50;97.50;;;;;;6304984;22;20090;-87
2023/05/01 08:01:21;;;;;;;0.00;0.00;;;13.50;97.40;;;;;;6304856;22;20037;-87
2023/05/01 08:03:46;;;;;;;0.00;0.00;;;13.70;98.10;;;;;;6305288;22;20026;-88
2023/05/01 08:06:12;;;;;;;0.00;0.00;;;13.70;98.00;;;;;;6306485;22;19995;-89
2023/05/01 08:08:37;;;;;;;0.00;0.00;;;14.00;97.10;;;;;;6303857;22;20457;-89
2023/05/01 08:11:03;;;;;;;0.00;0.00;;;14.00;96.60;;;;;;6305139;22;20010;-89
2023/05/01 08:13:28;;;;;;;0.00;0.00;;;14.10;96.70;;;;;;6301560;22;20031;-88
2023/05/01 08:15:54;;;;;;;0.00;0.00;;;14.10;96.90;;;;;;6305001;22;20003;-88
2023/05/01 08:18:20;;;;;;;0.00;0.00;;;14.10;96.60;;;;;;6303853;22;20015;-89
2023/05/01 08:20:49;;;;;;;0.00;0.00;;;14.10;97.70;;;;;;6303446;22;20480;-87
2023/05/01 08:23:16;;;;;;;0.00;0.00;;;14.20;97.90;;;;;;6304918;22;20082;-87
2023/05/01 08:25:42;;;;;;;0.00;0.00;;;14.40;96.80;;;;;;6305788;22;20003;-87
2023/05/01 08:28:08;;;;;;;0.00;0.00;;;14.60;96.80;;;;;;6304407;22;20417;-87
2023/05/01 08:30:33;;;;;;;0.00;0.00;;;14.60;95.70;;;;;;6304433;22;20007;-88
2023/05/01 08:32:59;;;;;;;0.00;0.00;;;14.80;95.50;;;;;;6304514;22;20006;-88
2023/05/01 08:35:24;;;;;;;0.00;0.00;;;14.80;96.30;;;;;;6305345;22;20027;-87
2023/05/01 08:37:50;;;;;;;0.00;0.00;;;15.10;95.80;;;;;;6304338;22;20326;-87
2023/05/01 08:40:15;;;;;;;0.00;0.00;;;15.10;95.10;;;;;;6306607;22;20377;-88
2023/05/01 08:42:41;;;;;;;0.00;0.00;;;15.10;94.90;;;;;;6304011;22;20014;-88
2023/05/01 08:45:08;;;;;;;0.00;0.00;;;15.10;95.30;;;;;;6303168;22;20090;-87
2023/05/01 08:47:37;;;;;;;0.00;0.00;;;15.20;93.60;;;;;;6305467;22;20034;-86
2023/05/01 08:50:03;;;;;;;0.00;0.00;;;15.20;93.80;;;;;;6305932;22;20080;-88
2023/05/01 08:52:30;;;;;;;0.00;0.00;;;15.30;93.00;;;;;;6305378;22;20390;-87
2023/05/01 08:54:58;;;;;;;0.00;0.00;;;15.30;93.20;;;;;;6305279;22;20003;-88
2023/05/01 08:57:26;;;;;;;0.00;0.00;;;15.60;92.90;;;;;;6305113;22;20007;-87
2023/05/01 08:59:52;;;;;;;0.00;0.00;;;15.50;93.10;;;;;;6305651;22;20034;-88
2023/05/01 09:02:18;;;;;;;0.00;0.00;;;15.70;93.60;;;;;;6304239;22;20046;-87
2023/05/01 09:04:45;;;;;;;0.00;0.00;;;15.90;93.70;;;;;;6305206;22;20304;-88
2023/05/01 09:07:11;;;;;;;0.00;0.00;;;16.00;93.00;;;;;;6305252;22;20206;-87
2023/05/01 09:09:37;;;;;;;0.00;0.00;;;16.10;93.60;;;;;;6305522;22;20034;-87
2023/05/01 09:12:09;;;;;;;0.00;0.00;;;16.20;91.70;;;;;;6305154;22;20003;-87
2023/05/01 09:14:35;;;;;;;0.00;0.00;;;16.30;92.90;;;;;;6304750;22;20189;-89
2023/05/01 09:17:01;;;;;;;0.00;0.00;;;16.40;92.40;;;;;;6305237;22;20611;-88
2023/05/01 09:19:26;;;;;;;0.00;0.00;;;16.50;92.70;;;;;;6304492;22;20007;-88
2023/05/01 09:21:55;;;;;;;0.00;0.00;;;16.60;91.90;;;;;;6304937;22;20003;-88
2023/05/01 09:24:27;;;;;;;0.00;0.00;;;16.60;92.60;;;;;;6304388;22;20098;-88
2023/05/01 09:26:53;;;;;;;0.00;0.00;;;16.70;92.30;;;;;;6305443;22;20241;-88
2023/05/01 09:29:40;;;;;;;0.00;0.00;;;16.70;92.30;;;;;;6304488;22;20041;-87
2023/05/01 09:32:12;;;;;;;0.00;0.00;;;16.90;92.80;;;;;;6304799;22;20039;-87
2023/05/01 09:34:37;;;;;;;0.00;0.00;;;17.00;92.30;;;;;;6305100;22;20449;-88
2023/05/01 09:37:03;;;;;;;0.00;0.00;;;17.10;90.50;;;;;;6305011;22;20008;-88
2023/05/01 09:39:28;;;;;;;0.00;0.00;;;17.30;90.80;;;;;;6304829;22;20033;-88
2023/05/01 09:41:54;;;;;;;0.00;0.00;;;17.50;88.30;;;;;;6304100;22;20050;-88
2023/05/01 09:44:20;;;;;;;0.00;0.00;;;17.60;88.20;;;;;;6304470;22;20037;-87
2023/05/01 09:46:46;;;;;;;0.00;0.00;;;17.70;88.10;;;;;;6306134;22;19995;-88
2023/05/01 09:49:11;;;;;;;0.00;0.00;;;17.80;88.60;;;;;;6304944;22;20055;-88
2023/05/01 09:51:37;;;;;;;0.00;0.00;;;17.90;90.10;;;;;;6303915;22;20078;-88
2023/05/01 09:54:04;;;;;;;0.00;0.00;;;18.00;88.30;;;;;;6302204;22;20030;-88
2023/05/01 09:56:44;;;;;;;0.00;0.00;;;18.00;87.40;;;;;;6305782;22;20018;-88
2023/05/01 09:59:16;;;;;;;0.00;0.00;;;18.10;89.00;;;;;;6305701;22;20003;-87
2023/05/01 10:01:45;;;;;;;0.00;0.00;;;18.20;89.80;;;;;;6305856;22;20025;-87
2023/05/01 10:04:11;;;;;;;0.00;0.00;;;18.20;90.30;;;;;;6305905;22;20010;-88
2023/05/01 10:06:38;;;;;;;0.00;0.00;;;18.40;88.90;;;;;;6306248;22;20517;-87
2023/05/01 10:09:06;;;;;;;0.00;0.00;;;18.40;85.00;;;;;;6300833;22;20491;-87
2023/05/01 10:11:47;;;;;;;0.00;0.00;;;18.40;83.40;;;;;;6304085;22;20072;-88
2023/05/01 10:14:12;;;;;;;0.00;0.00;;;18.40;82.10;;;;;;6305963;22;20339;-87
2023/05/01 10:16:38;;;;;;;0.00;0.00;;;17.90;82.50;;;;;;6306068;22;19999;-87
2023/05/01 10:19:04;;;;;;;0.00;0.00;;;17.70;83.50;;;;;;6305972;22;20061;-88
2023/05/01 10:21:32;;;;;;;0.00;0.00;;;17.70;83.40;;;;;;6304938;22;20090;-87
2023/05/01 10:24:02;;;;;;;0.00;0.00;;;17.50;84.70;;;;;;6306735;22;20003;-88
2023/05/01 10:26:28;;;;;;;0.00;0.00;;;17.80;85.50;;;;;;6306233;22;20027;-90
2023/05/01 10:28:57;;;;;;;0.00;0.00;;;17.50;85.30;;;;;;6306735;22;20006;-89
2023/05/01 10:31:23;;;;;;;0.00;0.00;;;17.40;87.70;;;;;;6280149;22;19995;-90
2023/05/01 10:33:49;;;;;;;0.00;0.00;;;17.60;90.00;;;;;;6281456;22;20334;-89
2023/05/01 10:36:22;;;;;;;0.00;0.00;;;17.80;87.70;;;;;;6280978;22;20010;-89
2023/05/01 10:38:47;;;;;;;0.00;0.00;;;17.80;90.70;;;;;;6280811;22;20030;-89
2023/05/01 10:41:15;;;;;;;0.00;0.00;;;17.80;90.60;;;;;;6279198;22;20007;-90
2023/05/01 10:43:41;;;;;;;0.00;0.00;;;17.70;85.30;;;;;;6277188;22;20099;-88
2023/05/01 10:46:06;;;;;;;0.00;0.00;;;17.80;88.40;;;;;;6279268;22;20086;-89
2023/05/01 10:48:38;;;;;;;0.00;0.00;;;18.00;87.20;;;;;;6280161;22;20030;-90
2023/05/01 10:51:23;;;;;;;0.00;0.00;;;18.00;87.30;;;;;;6280261;22;20006;-89
2023/05/01 10:54:12;;;;;;;0.00;0.00;;;18.00;87.80;;;;;;6279124;22;20446;-89
2023/05/01 10:56:38;;;;;;;0.00;0.00;;;18.00;88.00;;;;;;6280033;22;20010;-89
2023/05/01 10:59:04;;;;;;;0.00;0.00;;;18.10;88.30;;;;;;6280467;22;20311;-88
2023/05/01 11:01:33;;;;;;;0.00;0.00;;;18.20;87.50;;;;;;6280103;22;20007;-88
2023/05/01 11:04:26;;;;;;;0.00;0.00;;;18.10;84.10;;;;;;6280262;22;20007;-88
2023/05/01 11:07:00;;;;;;;0.00;0.00;;;18.00;82.40;;;;;;6279879;22;20007;-89
2023/05/01 11:09:37;;;;;;;0.00;0.00;;;18.00;83.00;;;;;;6279610;22;20347;-89
2023/05/01 11:12:03;;;;;;;0.00;0.00;;;18.00;82.10;;;;;;6278915;22;20015;-88
2023/05/01 11:15:07;;;;;;;0.00;0.00;;;18.10;82.10;;;;;;6278881;22;20007;-89
2023/05/01 11:17:39;;;;;;;0.00;0.00;;;17.90;83.40;;;;;;6279840;22;20007;-88
2023/05/01 11:20:12;;;;;;;0.00;0.00;;;17.90;84.60;;;;;;6278671;22;20003;-89
2023/05/01 11:22:43;;;;;;;0.00;0.00;;;17.90;86.40;;;;;;6279385;22;20008;-90
2023/05/01 11:25:23;;;;;;;0.00;0.00;;;17.90;88.30;;;;;;6278854;22;20047;-88
2023/05/01 11:27:51;;;;;;;0.00;0.00;;;18.10;88.30;;;;;;6279310;22;20500;-88
2023/05/01 11:30:17;;;;;;;0.00;0.00;;;18.30;85.20;;;;;;6293042;22;20007;-89
2023/05/01 11:32:46;;;;;;;0.00;0.00;;;18.10;83.50;;;;;;6305252;22;20015;-89
2023/05/01 11:35:20;;;;;;;0.00;0.00;;;18.10;82.30;;;;;;6305887;22;20034;-88
2023/05/01 11:37:47;;;;;;;0.00;0.00;;;18.30;83.40;;;;;;6305592;22;20648;-88
2023/05/01 11:40:24;;;;;;;0.00;0.00;;;18.30;83.40;;;;;;6305270;22;20022;-88
2023/05/01 11:42:59;;;;;;;0.00;0.00;;;18.30;82.50;;;;;;6305047;22;20320;-88
2023/05/01 11:45:25;;;;;;;0.00;0.00;;;18.40;81.40;;;;;;6307318;22;20002;-89
2023/05/01 11:47:50;;;;;;;0.00;0.00;;;18.50;82.20;;;;;;6305659;22;20007;-89
2023/05/01 11:50:16;;;;;;;0.00;0.00;;;18.60;80.60;;;;;;6305389;22;20109;-88
2023/05/01 11:52:48;;;;;;;0.00;0.00;;;18.90;81.30;;;;;;6305388;22;20004;-90
2023/05/01 11:55:14;;;;;;;0.00;0.00;;;18.90;81.90;;;;;;6305071;22;20338;-88
2023/05/01 11:57:47;;;;;;;0.00;0.00;;;19.00;85.40;;;;;;6305009;22;20086;-88
2023/05/01 12:00:14;;;;;;;0.00;0.00;;;19.20;85.70;;;;;;6305333;22;20003;-90
2023/05/01 12:02:54;;;;;;;0.00;0.00;;;19.30;83.30;;;;;;6305242;22;20017;-90
2023/05/01 12:05:22;;;;;;;0.00;0.00;;;19.40;84.70;;;;;;6305415;22;20007;-90
2023/05/01 12:07:47;;;;;;;0.00;0.00;;;19.50;83.90;;;;;;6305801;22;20030;-90
2023/05/01 12:10:13;;;;;;;0.00;0.00;;;19.50;82.60;;;;;;6304057;22;20000;-90
2023/05/01 12:12:39;;;;;;;0.00;0.00;;;19.50;81.80;;;;;;6303486;22;20450;-90
2023/05/01 12:15:05;;;;;;;0.00;0.00;;;19.50;79.80;;;;;;6306221;22;20003;-90
2023/05/01 12:17:31;;;;;;;0.00;0.00;;;19.40;82.00;;;;;;6305222;22;20612;-91
2023/05/01 12:19:56;;;;;;;0.00;0.00;;;19.40;82.60;;;;;;6305782;22;20003;-90
2023/05/01 12:22:22;;;;;;;0.00;0.00;;;19.50;83.20;;;;;;6305944;22;20013;-90
2023/05/01 12:24:51;;;;;;;0.00;0.00;;;19.60;83.50;;;;;;6306055;22;20002;-91
2023/05/01 12:27:18;;;;;;;0.00;0.00;;;19.80;81.20;;;;;;6305977;22;20443;-91
2023/05/01 12:29:46;;;;;;;0.00;0.00;;;19.80;81.70;;;;;;6305478;22;20140;-91
2023/05/01 12:32:12;;;;;;;0.00;0.00;;;19.90;84.30;;;;;;6306103;22;20323;-90
2023/05/01 12:34:39;;;;;;;0.00;0.00;;;20.10;82.90;;;;;;6305790;22;20342;-90
2023/05/01 12:37:05;;;;;;;0.00;0.00;;;20.20;79.30;;;;;;6306348;22;20007;-90
2023/05/01 12:39:41;;;;;;;0.00;0.00;;;20.30;82.20;;;;;;6304229;22;20037;-91
2023/05/01 12:42:12;;;;;;;0.00;0.00;;;20.70;80.40;;;;;;6305219;22;20011;-90
2023/05/01 12:44:38;;;;;;;0.00;0.00;;;21.00;79.50;;;;;;6305480;22;20003;-90
2023/05/01 12:47:06;;;;;;;0.00;0.00;;;21.30;78.40;;;;;;6305677;22;20003;-90
2023/05/01 12:49:35;;;;;;;0.00;0.00;;;21.40;79.00;;;;;;6305080;22;19999;-91
2023/05/01 12:52:02;;;;;;;0.00;0.00;;;21.50;77.10;;;;;;6305130;22;20003;-89
2023/05/01 12:54:32;;;;;;;0.00;0.00;;;21.60;78.60;;;;;;6305464;22;20007;-90
2023/05/01 12:57:06;;;;;;;0.00;0.00;;;21.90;80.00;;;;;;6305561;22;20026;-91
2023/05/01 12:59:32;;;;;;;0.00;0.00;;;22.10;75.30;;;;;;6304869;22;20072;-90